createdAt,value
2023-03-30T00:00:58.142Z,16.22
2023-03-30T00:01:58.058Z,16.34
2023-03-30T00:02:58.045Z,16.34
2023-03-30T00:03:58.048Z,16.26
2023-03-30T00:04:57.937Z,16.16
2023-03-30T00:05:57.751Z,16.30
2023-03-30T00:06:57.671Z,16.55
2023-03-30T00:07:57.614Z,16.56
2023-03-30T00:08:57.664Z,16.55
2023-03-30T00:09:57.439Z,16.56
2023-03-30T00:10:57.361Z,16.57
2023-03-30T00:11:57.307Z,16.47
2023-03-30T00:12:57.518Z,16.47
2023-03-30T00:13:57.154Z,16.56
2023-03-30T00:14:57.051Z,16.66
2023-03-30T00:15:57.379Z,16.56
2023-03-30T00:16:56.984Z,16.52
2023-03-30T00:17:57.228Z,16.52
2023-03-30T00:18:56.743Z,16.57
2023-03-30T00:19:56.714Z,16.44
2023-03-30T00:20:56.600Z,16.38
2023-03-30T00:21:56.815Z,16.30
2023-03-30T00:22:56.437Z,16.33
2023-03-30T00:23:56.363Z,16.35
2023-03-30T00:24:56.278Z,16.35
2023-03-30T00:25:56.199Z,16.30
2023-03-30T00:26:56.121Z,16.37
2023-03-30T00:27:56.069Z,16.52
2023-03-30T00:28:56.417Z,16.48
2023-03-30T00:29:55.886Z,16.47
2023-03-30T00:30:55.815Z,16.33
2023-03-30T00:31:55.759Z,16.34
2023-03-30T00:32:55.813Z,16.26
2023-03-30T00:33:55.581Z,16.15
2023-03-30T00:34:55.498Z,16.10
2023-03-30T00:35:55.460Z,16.00
2023-03-30T00:36:55.346Z,15.99
2023-03-30T00:37:55.602Z,15.91
2023-03-30T00:38:55.187Z,15.94
2023-03-30T00:39:55.115Z,15.82
2023-03-30T00:40:55.031Z,15.91
2023-03-30T00:41:54.952Z,15.89
2023-03-30T00:42:54.877Z,15.91
2023-03-30T00:43:54.821Z,15.91
2023-03-30T00:44:54.724Z,15.88
2023-03-30T00:45:54.967Z,15.89
2023-03-30T00:46:54.568Z,15.83
2023-03-30T00:47:54.497Z,15.67
2023-03-30T00:48:54.408Z,15.66
2023-03-30T00:49:54.330Z,15.66
2023-03-30T00:50:54.254Z,15.73
2023-03-30T00:51:54.175Z,15.63
2023-03-30T00:52:54.100Z,15.64
2023-03-30T00:53:54.021Z,15.67
2023-03-30T00:54:53.944Z,15.75
2023-03-30T00:55:53.886Z,15.71
2023-03-30T00:56:53.806Z,15.71
2023-03-30T00:57:53.717Z,15.83
2023-03-30T00:58:53.630Z,15.81
2023-03-30T00:59:53.589Z,15.82
2023-03-30T01:00:53.476Z,15.78
2023-03-30T01:01:53.525Z,15.76
2023-03-30T01:02:53.455Z,15.59
2023-03-30T01:03:53.331Z,15.59
2023-03-30T01:04:53.375Z,15.57
2023-03-30T01:05:53.122Z,15.43
2023-03-30T01:06:53.009Z,15.33
2023-03-30T01:07:52.930Z,15.34
2023-03-30T01:08:52.860Z,15.35
2023-03-30T01:09:52.776Z,15.35
2023-03-30T01:10:52.762Z,15.26
2023-03-30T01:11:52.620Z,15.24
2023-03-30T01:12:52.553Z,15.46
2023-03-30T01:13:52.465Z,15.35
2023-03-30T01:14:52.388Z,15.68
2023-03-30T01:15:52.386Z,15.83
2023-03-30T01:16:52.228Z,15.79
2023-03-30T01:17:52.212Z,15.81
2023-03-30T01:18:52.073Z,15.85
2023-03-30T01:19:51.998Z,15.82
2023-03-30T01:20:51.924Z,15.86
2023-03-30T01:21:51.880Z,15.82
2023-03-30T01:22:51.771Z,15.73
2023-03-30T01:23:51.692Z,15.71
2023-03-30T01:24:51.608Z,15.73
2023-03-30T01:25:51.532Z,15.75
2023-03-30T01:26:51.656Z,15.68
2023-03-30T01:27:51.384Z,15.68
2023-03-30T01:28:51.322Z,15.82
2023-03-30T01:29:51.220Z,15.75
2023-03-30T01:30:51.156Z,15.79
2023-03-30T01:31:51.082Z,15.88
2023-03-30T01:32:50.987Z,15.88
2023-03-30T01:33:50.914Z,15.79
2023-03-30T01:34:51.047Z,15.79
2023-03-30T01:35:50.795Z,15.91
2023-03-30T01:36:50.670Z,15.97
2023-03-30T01:37:50.590Z,15.92
2023-03-30T01:38:50.511Z,15.96
2023-03-30T01:39:50.436Z,16.00
2023-03-30T01:40:50.357Z,16.06
2023-03-30T01:41:50.280Z,16.06
2023-03-30T01:42:50.202Z,15.96
2023-03-30T01:43:50.123Z,16.01
2023-03-30T01:44:50.045Z,15.97
2023-03-30T01:45:49.967Z,15.99
2023-03-30T01:46:49.899Z,16.04
2023-03-30T01:47:49.874Z,16.04
2023-03-30T01:48:50.283Z,16.18
2023-03-30T01:49:49.652Z,16.33
2023-03-30T01:50:49.583Z,16.26
2023-03-30T01:51:49.513Z,16.34
2023-03-30T01:52:50.497Z,16.30
2023-03-30T01:53:49.342Z,16.30
2023-03-30T01:54:49.264Z,16.30
2023-03-30T01:55:49.189Z,16.41
2023-03-30T01:56:49.162Z,16.38
2023-03-30T01:57:49.031Z,16.37
2023-03-30T01:58:48.976Z,16.33
2023-03-30T01:59:49.072Z,16.33
2023-03-30T02:00:48.793Z,16.22
2023-03-30T02:01:48.912Z,16.16
2023-03-30T02:02:48.702Z,16.04
2023-03-30T02:03:48.669Z,16.12
2023-03-30T02:04:48.482Z,16.23
2023-03-30T02:05:48.406Z,16.35
2023-03-30T02:06:48.327Z,16.45
2023-03-30T02:07:48.250Z,16.48
2023-03-30T02:08:48.168Z,16.45
2023-03-30T02:09:48.141Z,16.59
2023-03-30T02:10:48.011Z,16.55
2023-03-30T02:11:47.949Z,16.50
2023-03-30T02:12:47.856Z,16.52
2023-03-30T02:13:47.779Z,16.52
2023-03-30T02:14:47.699Z,16.44
2023-03-30T02:15:47.627Z,16.48
2023-03-30T02:16:47.607Z,16.33
2023-03-30T02:17:47.493Z,16.23
2023-03-30T02:18:47.390Z,16.12
2023-03-30T02:19:47.389Z,16.03
2023-03-30T02:20:47.655Z,16.04
2023-03-30T02:21:47.161Z,15.94
2023-03-30T02:22:47.077Z,15.91
2023-03-30T02:23:47.003Z,15.86
2023-03-30T02:24:46.924Z,15.79
2023-03-30T02:25:46.858Z,15.96
2023-03-30T02:26:46.767Z,15.89
2023-03-30T02:27:46.889Z,15.71
2023-03-30T02:28:46.633Z,15.75
2023-03-30T02:29:46.540Z,15.70
2023-03-30T02:30:46.451Z,15.67
2023-03-30T02:31:46.425Z,15.68
2023-03-30T02:32:46.310Z,15.67
2023-03-30T02:33:46.218Z,15.73
2023-03-30T02:34:46.154Z,15.73
2023-03-30T02:35:46.123Z,15.68
2023-03-30T02:36:45.983Z,15.68
2023-03-30T02:37:45.905Z,15.66
2023-03-30T02:38:45.826Z,15.68
2023-03-30T02:39:45.749Z,15.70
2023-03-30T02:40:45.667Z,15.70
2023-03-30T02:41:45.590Z,15.71
2023-03-30T02:42:45.545Z,15.70
2023-03-30T02:43:45.434Z,15.60
2023-03-30T02:44:45.365Z,15.51
2023-03-30T02:45:45.327Z,15.60
2023-03-30T02:46:45.205Z,15.55
2023-03-30T02:47:45.474Z,15.46
2023-03-30T02:48:45.050Z,15.55
2023-03-30T02:49:44.965Z,15.55
2023-03-30T02:50:44.891Z,15.60
2023-03-30T02:51:44.839Z,15.53
2023-03-30T02:52:44.732Z,15.61
2023-03-30T02:53:44.652Z,15.63
2023-03-30T02:54:44.578Z,15.78
2023-03-30T02:55:44.495Z,15.70
2023-03-30T02:56:44.449Z,15.83
2023-03-30T02:57:44.338Z,15.97
2023-03-30T02:58:44.261Z,15.86
2023-03-30T02:59:44.187Z,15.88
2023-03-30T03:00:44.100Z,15.88
2023-03-30T03:01:44.068Z,15.86
2023-03-30T03:02:44.025Z,15.76
2023-03-30T03:03:43.936Z,15.86
2023-03-30T03:04:43.824Z,15.92
2023-03-30T03:05:43.718Z,16.03
2023-03-30T03:06:43.638Z,15.99
2023-03-30T03:07:43.573Z,16.01
2023-03-30T03:08:43.475Z,16.01
2023-03-30T03:09:43.400Z,16.03
2023-03-30T03:10:43.320Z,15.94
2023-03-30T03:11:43.242Z,15.92
2023-03-30T03:12:43.165Z,15.89
2023-03-30T03:13:43.087Z,15.99
2023-03-30T03:14:43.006Z,16.01
2023-03-30T03:15:43.080Z,15.97
2023-03-30T03:16:42.865Z,16.00
2023-03-30T03:17:42.775Z,16.03
2023-03-30T03:18:42.692Z,16.04
2023-03-30T03:19:42.622Z,15.97
2023-03-30T03:20:42.548Z,15.97
2023-03-30T03:21:42.459Z,15.94
2023-03-30T03:22:42.377Z,15.85
2023-03-30T03:23:42.354Z,15.91
2023-03-30T03:24:42.526Z,15.83
2023-03-30T03:25:42.153Z,15.71
2023-03-30T03:26:42.069Z,15.63
2023-03-30T03:27:41.989Z,15.59
2023-03-30T03:28:41.917Z,15.57
2023-03-30T03:29:41.833Z,15.68
2023-03-30T03:30:41.791Z,15.67
2023-03-30T03:31:41.748Z,15.55
2023-03-30T03:32:41.633Z,15.49
2023-03-30T03:33:41.523Z,15.41
2023-03-30T03:34:41.442Z,15.38
2023-03-30T03:35:41.377Z,15.34
2023-03-30T03:36:41.283Z,15.30
2023-03-30T03:37:41.214Z,15.18
2023-03-30T03:38:41.128Z,15.05
2023-03-30T03:39:41.072Z,15.03
2023-03-30T03:40:40.972Z,14.97
2023-03-30T03:41:40.893Z,14.97
2023-03-30T03:42:40.818Z,15.01
2023-03-30T03:43:40.744Z,15.02
2023-03-30T03:44:40.702Z,15.01
2023-03-30T03:45:40.779Z,15.01
2023-03-30T03:46:40.541Z,14.88
2023-03-30T03:47:40.468Z,14.84
2023-03-30T03:48:40.346Z,14.83
2023-03-30T03:49:40.267Z,14.80
2023-03-30T03:50:40.187Z,14.75
2023-03-30T03:51:40.110Z,14.72
2023-03-30T03:52:40.042Z,14.72
2023-03-30T03:53:39.956Z,14.74
2023-03-30T03:54:39.874Z,14.79
2023-03-30T03:55:39.829Z,14.87
2023-03-30T03:56:39.828Z,14.78
2023-03-30T03:57:39.639Z,14.90
2023-03-30T03:58:39.561Z,14.75
2023-03-30T03:59:39.484Z,14.74
2023-03-30T04:00:39.467Z,14.71
2023-03-30T04:01:39.352Z,14.71
2023-03-30T04:02:39.292Z,14.68
2023-03-30T04:03:39.175Z,14.60
2023-03-30T04:04:39.206Z,14.46
2023-03-30T04:05:39.017Z,14.35
2023-03-30T04:06:38.943Z,14.39
2023-03-30T04:07:38.857Z,14.31
2023-03-30T04:08:38.802Z,14.32
2023-03-30T04:09:38.705Z,14.34
2023-03-30T04:10:38.622Z,14.36
2023-03-30T04:11:38.971Z,14.23
2023-03-30T04:12:38.473Z,14.21
2023-03-30T04:13:38.397Z,14.32
2023-03-30T04:14:38.307Z,14.28
2023-03-30T04:15:38.230Z,14.28
2023-03-30T04:16:38.212Z,14.10
2023-03-30T04:17:38.098Z,14.20
2023-03-30T04:18:38.000Z,14.29
2023-03-30T04:19:37.986Z,14.38
2023-03-30T04:20:37.846Z,14.44
2023-03-30T04:21:37.758Z,14.44
2023-03-30T04:22:37.681Z,14.44
2023-03-30T04:23:37.606Z,14.41
2023-03-30T04:24:37.524Z,14.38
2023-03-30T04:25:37.444Z,14.41
2023-03-30T04:26:37.367Z,14.34
2023-03-30T04:27:37.332Z,14.32
2023-03-30T04:28:37.212Z,14.36
2023-03-30T04:29:37.131Z,14.39
2023-03-30T04:30:37.052Z,14.47
2023-03-30T04:31:37.003Z,14.44
2023-03-30T04:32:36.939Z,14.36
2023-03-30T04:33:36.819Z,14.41
2023-03-30T04:34:36.755Z,14.35
2023-03-30T04:35:36.702Z,14.35
2023-03-30T04:36:36.582Z,14.41
2023-03-30T04:37:36.507Z,14.29
2023-03-30T04:38:36.475Z,14.23
2023-03-30T04:39:36.346Z,14.21
2023-03-30T04:40:36.468Z,14.28
2023-03-30T04:41:36.231Z,14.41
2023-03-30T04:42:36.109Z,14.41
2023-03-30T04:43:36.056Z,14.54
2023-03-30T04:44:35.959Z,14.60
2023-03-30T04:45:35.892Z,14.64
2023-03-30T04:46:35.805Z,14.71
2023-03-30T04:47:35.835Z,14.71
2023-03-30T04:48:35.646Z,14.78
2023-03-30T04:49:35.662Z,14.75
2023-03-30T04:50:35.624Z,14.67
2023-03-30T04:51:35.413Z,14.57
2023-03-30T04:52:35.326Z,14.56
2023-03-30T04:53:35.252Z,14.69
2023-03-30T04:54:35.171Z,14.59
2023-03-30T04:55:35.172Z,14.61
2023-03-30T04:56:35.018Z,14.57
2023-03-30T04:57:34.937Z,14.57
2023-03-30T04:58:34.857Z,14.57
2023-03-30T04:59:34.853Z,14.64
2023-03-30T05:00:34.703Z,14.64
2023-03-30T05:01:34.653Z,14.57
2023-03-30T05:02:34.664Z,14.56
2023-03-30T05:03:34.610Z,14.52
2023-03-30T05:04:34.385Z,14.50
2023-03-30T05:05:34.307Z,14.34
2023-03-30T05:06:34.226Z,14.44
2023-03-30T05:07:34.151Z,14.32
2023-03-30T05:08:34.070Z,14.34
2023-03-30T05:09:33.993Z,14.28
2023-03-30T05:10:33.987Z,14.17
2023-03-30T05:11:33.834Z,14.16
2023-03-30T05:12:33.761Z,14.16
2023-03-30T05:13:33.678Z,14.02
2023-03-30T05:14:33.599Z,13.99
2023-03-30T05:15:33.539Z,13.94
2023-03-30T05:16:33.456Z,13.92
2023-03-30T05:17:33.390Z,13.99
2023-03-30T05:18:33.291Z,13.86
2023-03-30T05:19:33.205Z,13.80
2023-03-30T05:20:33.136Z,13.95
2023-03-30T05:21:33.049Z,13.84
2023-03-30T05:22:33.066Z,13.86
2023-03-30T05:23:32.889Z,13.76
2023-03-30T05:24:32.819Z,13.71
2023-03-30T05:25:32.734Z,13.65
2023-03-30T05:26:32.697Z,13.59
2023-03-30T05:27:32.579Z,13.53
2023-03-30T05:28:32.693Z,13.56
2023-03-30T05:29:32.424Z,13.55
2023-03-30T05:30:32.338Z,13.53
2023-03-30T05:31:32.364Z,13.52
2023-03-30T05:32:32.401Z,13.47
2023-03-30T05:33:32.105Z,13.38
2023-03-30T05:34:32.024Z,13.41
2023-03-30T05:35:31.972Z,13.29
2023-03-30T05:36:32.168Z,13.28
2023-03-30T05:37:31.795Z,13.24
2023-03-30T05:38:31.742Z,13.25
2023-03-30T05:39:31.627Z,13.28
2023-03-30T05:40:31.560Z,13.25
2023-03-30T05:41:31.467Z,13.21
2023-03-30T05:42:31.440Z,13.24
2023-03-30T05:43:31.310Z,13.22
2023-03-30T05:44:31.232Z,13.24
2023-03-30T05:45:31.151Z,13.25
2023-03-30T05:46:31.113Z,13.19
2023-03-30T05:47:31.024Z,13.17
2023-03-30T05:48:30.917Z,13.18
2023-03-30T05:49:30.836Z,13.18
2023-03-30T05:50:30.765Z,13.24
2023-03-30T05:51:30.682Z,13.18
2023-03-30T05:52:30.597Z,13.11
2023-03-30T05:53:30.532Z,13.15
2023-03-30T05:54:30.440Z,13.22
2023-03-30T05:55:30.369Z,13.24
2023-03-30T05:56:30.287Z,13.21
2023-03-30T05:57:30.360Z,13.28
2023-03-30T05:58:30.126Z,13.25
2023-03-30T05:59:30.052Z,13.37
2023-03-30T06:00:29.965Z,13.38
2023-03-30T06:01:29.895Z,13.45
2023-03-30T06:02:29.879Z,13.33
2023-03-30T06:03:29.890Z,13.45
2023-03-30T06:04:29.674Z,13.41
2023-03-30T06:05:29.575Z,13.44
2023-03-30T06:06:29.490Z,13.47
2023-03-30T06:07:29.413Z,13.45
2023-03-30T06:08:29.367Z,13.41
2023-03-30T06:09:29.250Z,13.38
2023-03-30T06:10:29.206Z,13.41
2023-03-30T06:11:29.130Z,13.27
2023-03-30T06:12:29.069Z,13.28
2023-03-30T06:13:28.971Z,13.29
2023-03-30T06:14:28.897Z,13.33
2023-03-30T06:15:28.934Z,13.44
2023-03-30T06:16:28.877Z,13.55
2023-03-30T06:17:28.825Z,13.63
2023-03-30T06:18:28.538Z,13.56
2023-03-30T06:19:28.681Z,13.63
2023-03-30T06:20:28.431Z,13.62
2023-03-30T06:21:28.306Z,13.65
2023-03-30T06:22:30.581Z,13.66
2023-03-30T06:23:28.151Z,13.66
2023-03-30T06:24:28.269Z,13.59
2023-03-30T06:25:28.020Z,13.65
2023-03-30T06:26:27.909Z,13.71
2023-03-30T06:27:28.058Z,13.76
2023-03-30T06:28:31.474Z,13.66
2023-03-30T06:29:27.666Z,13.63
2023-03-30T06:30:27.655Z,13.63
2023-03-30T06:31:27.522Z,13.56
2023-03-30T06:32:27.450Z,13.52
2023-03-30T06:33:27.354Z,13.55
2023-03-30T06:34:27.270Z,13.53
2023-03-30T06:35:27.202Z,13.48
2023-03-30T06:36:44.459Z,13.43
2023-03-30T06:37:27.021Z,13.44
2023-03-30T06:38:26.949Z,13.43
2023-03-30T06:39:26.869Z,13.37
2023-03-30T06:40:26.814Z,13.45
2023-03-30T06:41:26.748Z,13.43
2023-03-30T06:42:26.662Z,13.29
2023-03-30T06:43:26.594Z,13.28
2023-03-30T06:44:26.543Z,13.40
2023-03-30T06:45:26.421Z,13.36
2023-03-30T06:46:26.543Z,13.40
2023-03-30T06:47:26.504Z,13.44
2023-03-30T06:48:26.147Z,13.43
2023-03-30T06:49:26.066Z,13.48
2023-03-30T06:51:28.647Z,13.48
2023-03-30T06:52:25.830Z,13.50
2023-03-30T06:53:25.801Z,13.48
2023-03-30T06:54:25.666Z,13.44
2023-03-30T06:55:25.586Z,13.48
2023-03-30T06:56:25.508Z,13.38
2023-03-30T06:57:25.531Z,13.45
2023-03-30T06:58:25.648Z,13.38
2023-03-30T06:59:25.273Z,13.44
2023-03-30T07:00:25.231Z,13.41
2023-03-30T07:01:25.146Z,13.27
2023-03-30T07:02:25.076Z,13.43
2023-03-30T07:03:25.005Z,13.41
2023-03-30T07:04:24.944Z,13.44
2023-03-30T07:05:24.847Z,13.25
2023-03-30T07:06:24.713Z,13.25
2023-03-30T07:07:24.664Z,13.33
2023-03-30T07:08:24.559Z,13.37
2023-03-30T07:09:24.472Z,13.38
2023-03-30T07:10:24.389Z,13.38
2023-03-30T07:11:24.311Z,13.38
2023-03-30T07:12:24.230Z,13.40
2023-03-30T07:13:24.148Z,13.43
2023-03-30T07:14:24.415Z,13.43
2023-03-30T07:15:23.992Z,13.38
2023-03-30T07:16:23.930Z,13.43
2023-03-30T07:17:26.390Z,13.44
2023-03-30T07:18:23.748Z,13.43
2023-03-30T07:19:23.674Z,13.40
2023-03-30T07:20:23.593Z,13.44
2023-03-30T07:21:23.509Z,13.40
2023-03-30T07:22:23.433Z,13.40
2023-03-30T07:23:23.732Z,13.32
2023-03-30T07:24:23.269Z,13.28
2023-03-30T07:25:23.189Z,13.28
2023-03-30T07:26:23.108Z,13.28
2023-03-30T07:27:25.131Z,13.40
2023-03-30T07:28:22.948Z,13.29
2023-03-30T07:29:22.868Z,13.28
2023-03-30T07:30:23.040Z,13.38
2023-03-30T07:31:22.741Z,13.40
2023-03-30T07:32:22.784Z,13.40
2023-03-30T07:33:22.634Z,13.29
2023-03-30T07:34:22.471Z,13.27
2023-03-30T07:35:22.388Z,13.37
2023-03-30T07:36:22.400Z,13.29
2023-03-30T07:37:22.528Z,13.29
2023-03-30T07:38:22.156Z,13.27
2023-03-30T07:39:22.099Z,13.41
2023-03-30T07:40:22.049Z,13.33
2023-03-30T07:41:21.921Z,13.29
2023-03-30T07:42:21.836Z,13.40
2023-03-30T07:43:21.772Z,13.44
2023-03-30T07:44:21.672Z,13.38
2023-03-30T07:45:21.591Z,13.43
2023-03-30T07:46:21.576Z,13.43
2023-03-30T07:47:21.428Z,13.41
2023-03-30T07:48:21.348Z,13.33
2023-03-30T07:49:21.271Z,13.38
2023-03-30T07:50:21.442Z,13.44
2023-03-30T07:51:21.110Z,13.37
2023-03-30T07:52:21.030Z,13.28
2023-03-30T07:53:20.951Z,13.33
2023-03-30T07:54:21.268Z,13.28
2023-03-30T07:55:20.817Z,13.32
2023-03-30T07:56:20.710Z,13.40
2023-03-30T07:57:21.041Z,13.36
2023-03-30T07:58:20.651Z,13.40
2023-03-30T07:59:20.478Z,13.37
2023-03-30T08:00:20.392Z,13.37
2023-03-30T08:01:20.313Z,13.38
2023-03-30T08:02:20.234Z,13.38
2023-03-30T08:03:20.228Z,13.43
2023-03-30T08:04:20.177Z,13.36
2023-03-30T08:05:20.177Z,13.43
2023-03-30T08:06:19.924Z,13.41
2023-03-30T08:07:19.873Z,13.27
2023-03-30T08:08:19.763Z,13.38
2023-03-30T08:09:19.686Z,13.41
2023-03-30T08:10:19.602Z,13.43
2023-03-30T08:11:19.536Z,13.40
2023-03-30T08:12:19.449Z,13.44
2023-03-30T08:13:21.354Z,13.48
2023-03-30T08:14:19.271Z,13.55
2023-03-30T08:15:19.343Z,13.55
2023-03-30T08:16:19.287Z,13.62
2023-03-30T08:17:19.037Z,13.68
2023-03-30T08:18:18.955Z,13.65
2023-03-30T08:19:18.878Z,13.66
2023-03-30T08:20:18.895Z,13.70
2023-03-30T08:21:18.714Z,13.71
2023-03-30T08:22:18.644Z,13.73
2023-03-30T08:23:18.555Z,13.63
2023-03-30T08:24:18.475Z,13.76
2023-03-30T08:25:18.494Z,13.66
2023-03-30T08:26:18.315Z,13.73
2023-03-30T08:27:18.267Z,13.87
2023-03-30T08:28:18.204Z,13.81
2023-03-30T08:29:18.081Z,13.81
2023-03-30T08:30:18.010Z,13.83
2023-03-30T08:31:17.967Z,13.84
2023-03-30T08:32:17.856Z,13.91
2023-03-30T08:33:17.772Z,13.96
2023-03-30T08:34:17.729Z,13.92
2023-03-30T08:35:17.606Z,13.99
2023-03-30T08:36:17.521Z,14.10
2023-03-30T08:37:17.441Z,14.07
2023-03-30T08:38:17.486Z,14.17
2023-03-30T08:39:17.289Z,14.09
2023-03-30T08:40:19.331Z,14.14
2023-03-30T08:41:17.129Z,14.16
2023-03-30T08:42:17.043Z,14.21
2023-03-30T08:43:16.992Z,14.24
2023-03-30T08:44:16.886Z,14.32
2023-03-30T08:45:16.827Z,14.34
2023-03-30T08:46:16.857Z,14.41
2023-03-30T08:47:16.659Z,14.35
2023-03-30T08:48:16.620Z,14.38
2023-03-30T08:49:16.489Z,14.35
2023-03-30T08:50:16.412Z,14.36
2023-03-30T08:51:16.334Z,14.46
2023-03-30T08:52:16.255Z,14.44
2023-03-30T08:53:16.176Z,14.57
2023-03-30T08:54:16.095Z,14.57
2023-03-30T08:55:16.022Z,14.69
2023-03-30T08:56:15.939Z,14.69
2023-03-30T08:57:15.922Z,14.83
2023-03-30T08:58:15.784Z,14.78
2023-03-30T08:59:15.727Z,14.83
2023-03-30T09:00:15.624Z,14.75
2023-03-30T09:01:15.600Z,14.83
2023-03-30T09:02:15.471Z,14.75
2023-03-30T09:03:15.502Z,14.72
2023-03-30T09:04:15.311Z,14.78
2023-03-30T09:05:15.280Z,14.71
2023-03-30T09:06:15.157Z,14.78
2023-03-30T09:07:15.231Z,14.74
2023-03-30T09:08:15.000Z,14.80
2023-03-30T09:09:14.922Z,14.83
2023-03-30T09:10:14.860Z,14.83
2023-03-30T09:11:14.769Z,14.87
2023-03-30T09:12:14.688Z,14.88
2023-03-30T09:13:14.711Z,14.87
2023-03-30T09:14:14.536Z,14.97
2023-03-30T09:15:14.730Z,15.02
2023-03-30T09:16:14.405Z,14.91
2023-03-30T09:17:14.299Z,15.02
2023-03-30T09:18:14.258Z,14.84
2023-03-30T09:19:14.142Z,14.85
2023-03-30T09:20:14.067Z,14.91
2023-03-30T09:21:13.992Z,14.97
2023-03-30T09:22:14.319Z,14.88
2023-03-30T09:23:13.852Z,14.87
2023-03-30T09:24:13.756Z,14.88
2023-03-30T09:25:13.684Z,14.84
2023-03-30T09:26:13.596Z,14.88
2023-03-30T09:27:13.528Z,14.83
2023-03-30T09:28:13.456Z,14.87
2023-03-30T09:29:13.374Z,14.83
2023-03-30T09:30:13.296Z,14.94
2023-03-30T09:31:13.259Z,14.98
2023-03-30T09:32:13.264Z,14.87
2023-03-30T09:33:13.071Z,14.97
2023-03-30T09:34:14.266Z,14.91
2023-03-30T09:35:12.905Z,14.97
2023-03-30T09:36:12.840Z,14.80
2023-03-30T09:37:12.759Z,14.90
2023-03-30T09:38:12.665Z,14.88
2023-03-30T09:39:12.588Z,14.80
2023-03-30T09:40:12.510Z,14.85
2023-03-30T09:41:12.432Z,15.01
2023-03-30T09:42:12.369Z,14.97
2023-03-30T09:43:12.277Z,15.03
2023-03-30T09:44:12.199Z,14.98
2023-03-30T09:45:12.123Z,14.95
2023-03-30T09:46:12.127Z,15.05
2023-03-30T09:47:12.022Z,15.15
2023-03-30T09:48:11.913Z,15.12
2023-03-30T09:49:12.206Z,15.23
2023-03-30T09:50:11.731Z,15.27
2023-03-30T09:51:11.650Z,15.23
2023-03-30T09:52:11.575Z,15.15
2023-03-30T09:53:11.504Z,14.97
2023-03-30T09:54:11.468Z,14.97
2023-03-30T09:55:11.340Z,14.97
2023-03-30T09:56:11.267Z,15.02
2023-03-30T09:57:11.197Z,15.05
2023-03-30T09:58:11.107Z,15.03
2023-03-30T09:59:11.035Z,15.06
2023-03-30T10:00:10.965Z,15.20
2023-03-30T10:01:10.929Z,15.15
2023-03-30T10:02:10.897Z,15.18
2023-03-30T10:03:10.878Z,15.24
2023-03-30T10:04:11.138Z,15.30
2023-03-30T10:05:10.570Z,15.26
2023-03-30T10:06:10.489Z,15.34
2023-03-30T10:07:18.633Z,15.33
2023-03-30T10:08:10.334Z,15.31
2023-03-30T10:09:10.254Z,15.45
2023-03-30T10:10:10.181Z,15.48
2023-03-30T10:11:10.108Z,15.42
2023-03-30T10:12:10.176Z,15.43
2023-03-30T10:13:09.945Z,15.43
2023-03-30T10:14:09.869Z,15.41
2023-03-30T10:15:09.791Z,15.49
2023-03-30T10:16:09.791Z,15.48
2023-03-30T10:17:09.639Z,15.43
2023-03-30T10:18:09.682Z,15.45
2023-03-30T10:19:09.817Z,15.53
2023-03-30T10:20:13.971Z,15.34
2023-03-30T10:21:09.333Z,15.35
2023-03-30T10:22:09.310Z,15.34
2023-03-30T10:23:09.572Z,15.39
2023-03-30T10:24:09.097Z,15.38
2023-03-30T10:25:10.120Z,15.34
2023-03-30T10:26:08.947Z,15.28
2023-03-30T10:27:08.862Z,15.27
2023-03-30T10:28:08.790Z,15.39
2023-03-30T10:29:08.736Z,15.45
2023-03-30T10:30:08.636Z,15.67
2023-03-30T10:31:08.598Z,15.59
2023-03-30T10:32:08.480Z,15.59
2023-03-30T10:33:08.405Z,15.68
2023-03-30T10:34:08.726Z,15.68
2023-03-30T10:35:08.296Z,15.83
2023-03-30T10:36:08.563Z,15.88
2023-03-30T10:37:08.092Z,15.59
2023-03-30T10:38:08.034Z,15.57
2023-03-30T10:39:07.961Z,15.57
2023-03-30T10:40:07.867Z,15.57
2023-03-30T10:41:07.783Z,15.71
2023-03-30T10:42:07.743Z,15.39
2023-03-30T10:43:07.632Z,15.30
2023-03-30T10:44:07.804Z,15.45
2023-03-30T10:45:07.518Z,15.41
2023-03-30T10:46:18.846Z,15.48
2023-03-30T10:47:07.377Z,15.55
2023-03-30T10:48:07.308Z,15.53
2023-03-30T10:49:07.316Z,15.51
2023-03-30T10:50:07.091Z,15.41
2023-03-30T10:51:07.127Z,15.43
2023-03-30T10:52:06.968Z,15.43
2023-03-30T10:53:06.888Z,15.43
2023-03-30T10:54:06.798Z,15.43
2023-03-30T10:55:06.739Z,15.43
2023-03-30T10:57:06.670Z,15.67
2023-03-30T10:58:06.508Z,15.71
2023-03-30T10:59:06.397Z,15.76
2023-03-30T11:00:06.373Z,15.85
2023-03-30T11:01:06.280Z,15.70
2023-03-30T11:02:06.172Z,15.83
2023-03-30T11:03:06.229Z,15.86
2023-03-30T11:04:20.572Z,15.81
2023-03-30T11:06:06.153Z,15.92
2023-03-30T11:07:05.803Z,15.96
2023-03-30T11:08:05.757Z,15.92
2023-03-30T11:09:05.636Z,15.97
2023-03-30T11:10:05.551Z,16.01
2023-03-30T11:11:05.476Z,16.03
2023-03-30T11:12:05.397Z,15.97
2023-03-30T11:13:05.316Z,16.06
2023-03-30T11:14:05.242Z,16.23
2023-03-30T11:15:05.163Z,16.23
2023-03-30T11:16:05.251Z,16.63
2023-03-30T11:17:05.051Z,16.88
2023-03-30T11:18:04.987Z,17.21
2023-03-30T11:19:04.860Z,17.28
2023-03-30T11:20:04.781Z,17.35
2023-03-30T11:21:04.704Z,17.08
2023-03-30T11:22:04.627Z,17.21
2023-03-30T11:23:04.590Z,17.33
2023-03-30T11:24:04.486Z,17.23
2023-03-30T11:25:04.400Z,17.17
2023-03-30T11:26:04.966Z,17.18
2023-03-30T11:27:04.255Z,17.11
2023-03-30T11:28:04.178Z,17.30
2023-03-30T11:29:04.095Z,17.25
2023-03-30T11:30:04.029Z,17.11
2023-03-30T11:31:03.950Z,17.13
2023-03-30T11:32:03.914Z,17.20
2023-03-30T11:33:03.837Z,16.93
2023-03-30T11:34:03.730Z,16.84
2023-03-30T11:35:03.849Z,16.85
2023-03-30T11:36:03.760Z,16.85
2023-03-30T11:37:03.498Z,16.96
2023-03-30T11:38:03.427Z,16.96
2023-03-30T11:39:03.379Z,16.89
2023-03-30T11:40:03.289Z,17.10
2023-03-30T11:41:03.197Z,17.21
2023-03-30T11:42:03.157Z,17.21
2023-03-30T11:43:03.073Z,17.39
2023-03-30T11:44:02.983Z,17.71
2023-03-30T11:45:02.896Z,17.92
2023-03-30T11:46:04.002Z,18.31
2023-03-30T11:47:02.854Z,18.92
2023-03-30T11:48:02.724Z,19.53
2023-03-30T11:49:02.605Z,19.57
2023-03-30T11:50:02.788Z,19.95
2023-03-30T11:51:02.531Z,20.49
2023-03-30T11:52:02.737Z,20.26
2023-03-30T11:53:02.341Z,20.53
2023-03-30T11:54:02.443Z,20.59
2023-03-30T11:56:02.507Z,20.65
2023-03-30T11:57:02.088Z,20.59
2023-03-30T11:58:04.166Z,20.66
2023-03-30T12:00:01.820Z,20.84
2023-03-30T12:01:01.824Z,21.35
2023-03-30T12:02:01.674Z,20.83
2023-03-30T12:03:01.801Z,20.05
2023-03-30T12:04:04.179Z,20.34
2023-03-30T12:05:01.625Z,20.99
2023-03-30T12:07:01.341Z,20.06
2023-03-30T12:08:01.271Z,20.20
2023-03-30T12:09:01.199Z,20.05
2023-03-30T12:10:04.639Z,19.83
2023-03-30T12:11:01.062Z,19.51
2023-03-30T12:12:01.355Z,19.43
2023-03-30T12:13:00.918Z,19.50
2023-03-30T12:14:00.845Z,19.71
2023-03-30T12:15:00.773Z,19.36
2023-03-30T12:16:00.723Z,19.15
2023-03-30T12:17:00.632Z,19.54
2023-03-30T12:18:00.658Z,20.09
2023-03-30T12:19:00.496Z,20.86
2023-03-30T12:20:00.435Z,20.83
2023-03-30T12:21:00.361Z,21.33
2023-03-30T12:22:00.290Z,21.27
2023-03-30T12:23:00.218Z,21.05
2023-03-30T12:24:00.148Z,21.08
2023-03-30T12:25:00.383Z,20.76
2023-03-30T12:26:00.022Z,21.16
2023-03-30T12:27:05.102Z,21.08
2023-03-30T12:27:59.893Z,21.91
2023-03-30T12:29:36.001Z,21.89
2023-03-30T12:30:03.272Z,21.69
2023-03-30T12:30:59.678Z,20.06
2023-03-30T12:31:59.687Z,19.14
2023-03-30T12:32:59.592Z,18.68
2023-03-30T12:33:59.466Z,18.32
2023-03-30T12:34:59.428Z,17.96
2023-03-30T12:35:59.419Z,17.79
2023-03-30T12:36:59.262Z,17.67
2023-03-30T12:37:59.191Z,17.35
2023-03-30T12:38:59.121Z,17.29
2023-03-30T12:39:59.056Z,17.32
2023-03-30T12:40:59.031Z,17.21
2023-03-30T12:42:41.398Z,18.76
2023-03-30T12:43:41.349Z,19.46
2023-03-30T12:44:41.269Z,20.42
2023-03-30T12:45:41.231Z,21.57
2023-03-30T12:46:41.108Z,22.15
2023-03-30T12:47:41.084Z,21.92
2023-03-30T12:48:40.970Z,22.30
2023-03-30T12:49:40.895Z,22.54
2023-03-30T12:50:40.831Z,22.59
2023-03-30T12:51:40.759Z,21.60
2023-03-30T12:52:40.890Z,21.74
2023-03-30T12:53:40.619Z,22.13
2023-03-30T12:54:40.552Z,22.23
2023-03-30T12:55:40.491Z,22.34
2023-03-30T12:56:40.513Z,22.57
2023-03-30T12:57:40.396Z,22.50
2023-03-30T12:58:40.282Z,22.26